sensor_id;sensor_type;location;lat;lon;timestamp;pressure;altitude;pressure_sealevel;temperature;humidity
77159;BME280;66129;45.890;13.714;2022-12-20T00:01:58;102524.25;;;-0.18;85.88
77159;BME280;66129;45.890;13.714;2022-12-20T00:04:24;102524.34;;;-0.08;85.87
77159;BME280;66129;45.890;13.714;2022-12-20T00:06:49;102541.97;;;-0.08;85.05
77159;BME280;66129;45.890;13.714;2022-12-20T00:09:15;102623.19;;;0.35;85.04
77159;BME280;66129;45.890;13.714;2022-12-20T00:11:41;102607.25;;;0.07;87.12
77159;BME280;66129;45.890;13.714;2022-12-20T00:14:07;102591.44;;;0.00;86.88
77159;BME280;66129;45.890;13.714;2022-12-20T00:16:35;102510.69;;;-0.47;87.01
77159;BME280;66129;45.890;13.714;2022-12-20T00:19:03;102535.81;;;-0.38;86.48
77159;BME280;66129;45.890;13.714;2022-12-20T00:21:29;102559.59;;;-0.26;87.44
77159;BME280;66129;45.890;13.714;2022-12-20T00:23:56;102536.22;;;-0.52;87.72
77159;BME280;66129;45.890;13.714;2022-12-20T00:26:27;102578.03;;;-0.36;86.93
77159;BME280;66129;45.890;13.714;2022-12-20T00:28:53;102533.25;;;-0.57;87.95
77159;BME280;66129;45.890;13.714;2022-12-20T00:31:20;102529.72;;;-0.59;87.66
77159;BME280;66129;45.890;13.714;2022-12-20T00:33:49;102552.94;;;-0.53;87.39
77159;BME280;66129;45.890;13.714;2022-12-20T00:36:15;102530.31;;;-0.61;87.29
77159;BME280;66129;45.890;13.714;2022-12-20T00:38:46;102517.75;;;-0.61;86.96
77159;BME280;66129;45.890;13.714;2022-12-20T00:41:14;102560.72;;;-0.41;87.00
77159;BME280;66129;45.890;13.714;2022-12-20T00:43:40;102526.94;;;-0.62;87.04
77159;BME280;66129;45.890;13.714;2022-12-20T00:46:09;102574.91;;;-0.33;87.06
77159;BME280;66129;45.890;13.714;2022-12-20T00:48:35;102629.16;;;-0.10;87.42
77159;BME280;66129;45.890;13.714;2022-12-20T00:51:04;102576.44;;;-0.44;87.58
77159;BME280;66129;45.890;13.714;2022-12-20T00:53:30;102630.63;;;-0.12;87.47
77159;BME280;66129;45.890;13.714;2022-12-20T00:55:56;102590.34;;;-0.39;87.38
77159;BME280;66129;45.890;13.714;2022-12-20T00:58:21;102624.75;;;-0.21;88.19
77159;BME280;66129;45.890;13.714;2022-12-20T01:00:47;102542.97;;;-0.70;87.49
77159;BME280;66129;45.890;13.714;2022-12-20T01:03:13;102554.88;;;-0.59;87.68
77159;BME280;66129;45.890;13.714;2022-12-20T01:05:38;102559.91;;;-0.50;87.45
77159;BME280;66129;45.890;13.714;2022-12-20T01:08:04;102567.00;;;-0.46;87.70
77159;BME280;66129;45.890;13.714;2022-12-20T01:10:30;102623.94;;;-0.11;87.51
77159;BME280;66129;45.890;13.714;2022-12-20T01:12:56;102511.91;;;-0.79;87.49
77159;BME280;66129;45.890;13.714;2022-12-20T01:15:22;102555.56;;;-0.70;87.54
77159;BME280;66129;45.890;13.714;2022-12-20T01:17:47;102558.03;;;-0.61;86.90
77159;BME280;66129;45.890;13.714;2022-12-20T01:20:13;102525.41;;;-0.87;87.27
77159;BME280;66129;45.890;13.714;2022-12-20T01:22:39;102587.91;;;-0.56;87.95
77159;BME280;66129;45.890;13.714;2022-12-20T01:25:04;102563.09;;;-0.70;88.07
77159;BME280;66129;45.890;13.714;2022-12-20T01:27:30;102526.91;;;-0.89;87.92
77159;BME280;66129;45.890;13.714;2022-12-20T01:29:56;102528.66;;;-0.79;88.17
77159;BME280;66129;45.890;13.714;2022-12-20T01:32:21;102559.50;;;-0.63;88.04
77159;BME280;66129;45.890;13.714;2022-12-20T01:34:47;102515.78;;;-0.82;87.85
77159;BME280;66129;45.890;13.714;2022-12-20T01:37:12;102542.56;;;-0.83;87.68
77159;BME280;66129;45.890;13.714;2022-12-20T01:39:38;102552.56;;;-0.66;88.27
77159;BME280;66129;45.890;13.714;2022-12-20T01:42:04;102537.78;;;-0.71;87.93
77159;BME280;66129;45.890;13.714;2022-12-20T01:46:55;102574.03;;;-0.61;87.53
77159;BME280;66129;45.890;13.714;2022-12-20T01:49:25;102599.06;;;-0.35;87.74
77159;BME280;66129;45.890;13.714;2022-12-20T01:52:01;102596.72;;;-0.42;88.31
77159;BME280;66129;45.890;13.714;2022-12-20T01:54:33;102545.81;;;-0.75;88.11
77159;BME280;66129;45.890;13.714;2022-12-20T01:57:05;102599.28;;;-0.51;89.68
77159;BME280;66129;45.890;13.714;2022-12-20T01:59:32;102572.00;;;-0.73;90.10
77159;BME280;66129;45.890;13.714;2022-12-20T02:02:02;102508.94;;;-1.02;88.74
77159;BME280;66129;45.890;13.714;2022-12-20T02:04:29;102583.72;;;-0.47;89.06
77159;BME280;66129;45.890;13.714;2022-12-20T02:06:55;102542.56;;;-0.83;88.45
77159;BME280;66129;45.890;13.714;2022-12-20T02:09:22;102576.81;;;-0.58;88.64
77159;BME280;66129;45.890;13.714;2022-12-20T02:12:11;102511.13;;;-0.96;89.15
77159;BME280;66129;45.890;13.714;2022-12-20T02:27:42;102552.81;;;-0.81;89.39
77159;BME280;66129;45.890;13.714;2022-12-20T02:30:16;102502.59;;;-1.07;89.97
77159;BME280;66129;45.890;13.714;2022-12-20T02:32:56;102484.91;;;-1.25;91.26
77159;BME280;66129;45.890;13.714;2022-12-20T02:35:30;102481.94;;;-1.21;91.51
77159;BME280;66129;45.890;13.714;2022-12-20T02:37:58;102472.59;;;-1.22;91.06
77159;BME280;66129;45.890;13.714;2022-12-20T02:40:27;102433.16;;;-1.31;90.99
77159;BME280;66129;45.890;13.714;2022-12-20T02:43:04;102544.88;;;-0.67;90.04
77159;BME280;66129;45.890;13.714;2022-12-20T02:45:51;102468.56;;;-1.12;90.75
77159;BME280;66129;45.890;13.714;2022-12-20T02:48:18;102495.16;;;-0.97;91.31
77159;BME280;66129;45.890;13.714;2022-12-20T02:50:49;102487.03;;;-1.03;90.81
77159;BME280;66129;45.890;13.714;2022-12-20T02:53:17;102448.38;;;-1.21;90.98
77159;BME280;66129;45.890;13.714;2022-12-20T02:58:52;102429.81;;;-1.13;90.35
77159;BME280;66129;45.890;13.714;2022-12-20T03:01:52;102458.88;;;-0.99;90.46
77159;BME280;66129;45.890;13.714;2022-12-20T03:04:20;102458.88;;;-0.99;89.50
77159;BME280;66129;45.890;13.714;2022-12-20T03:07:09;102505.78;;;-0.64;89.21
77159;BME280;66129;45.890;13.714;2022-12-20T03:09:38;102466.44;;;-0.99;89.66
77159;BME280;66129;45.890;13.714;2022-12-20T03:12:05;102442.03;;;-1.00;89.64
77159;BME280;66129;45.890;13.714;2022-12-20T03:14:30;102489.78;;;-0.64;89.58
77159;BME280;66129;45.890;13.714;2022-12-20T03:16:56;102454.78;;;-0.80;89.23
77159;BME280;66129;45.890;13.714;2022-12-20T03:19:23;102495.38;;;-0.40;89.61
77159;BME280;66129;45.890;13.714;2022-12-20T03:21:49;102471.41;;;-0.45;88.61
77159;BME280;66129;45.890;13.714;2022-12-20T03:24:14;102488.91;;;-0.28;88.97
77159;BME280;66129;45.890;13.714;2022-12-20T03:26:40;102507.94;;;-0.13;89.03
77159;BME280;66129;45.890;13.714;2022-12-20T03:29:06;102430.66;;;-0.59;87.96
77159;BME280;66129;45.890;13.714;2022-12-20T03:31:31;102443.50;;;-0.56;88.26
77159;BME280;66129;45.890;13.714;2022-12-20T03:33:57;102486.91;;;-0.32;88.15
77159;BME280;66129;45.890;13.714;2022-12-20T03:36:23;102492.41;;;-0.17;88.11
77159;BME280;66129;45.890;13.714;2022-12-20T03:38:50;102423.56;;;-0.63;88.25
77159;BME280;66129;45.890;13.714;2022-12-20T03:41:15;102434.25;;;-0.29;87.91
77159;BME280;66129;45.890;13.714;2022-12-20T03:43:41;102445.03;;;-0.21;87.79
77159;BME280;66129;45.890;13.714;2022-12-20T03:46:06;102387.03;;;-0.50;87.48
77159;BME280;66129;45.890;13.714;2022-12-20T03:48:31;102369.88;;;-0.54;87.58
77159;BME280;66129;45.890;13.714;2022-12-20T03:50:57;102472.19;;;-0.09;87.47
77159;BME280;66129;45.890;13.714;2022-12-20T03:53:23;102389.97;;;-0.64;87.84
77159;BME280;66129;45.890;13.714;2022-12-20T03:55:48;102398.56;;;-0.62;88.09
77159;BME280;66129;45.890;13.714;2022-12-20T03:58:14;102386.75;;;-0.71;88.08
77159;BME280;66129;45.890;13.714;2022-12-20T04:00:39;102423.72;;;-0.62;89.17
77159;BME280;66129;45.890;13.714;2022-12-20T04:03:05;102399.41;;;-0.80;90.02
77159;BME280;66129;45.890;13.714;2022-12-20T04:05:30;102465.72;;;-0.52;90.58
77159;BME280;66129;45.890;13.714;2022-12-20T04:07:56;102387.59;;;-1.08;90.74
77159;BME280;66129;45.890;13.714;2022-12-20T04:10:21;102483.72;;;-0.48;90.48
77159;BME280;66129;45.890;13.714;2022-12-20T04:12:47;102412.34;;;-0.85;90.04
77159;BME280;66129;45.890;13.714;2022-12-20T04:15:12;102497.56;;;-0.34;89.53
77159;BME280;66129;45.890;13.714;2022-12-20T04:17:38;102495.22;;;-0.41;88.67
77159;BME280;66129;45.890;13.714;2022-12-20T04:20:05;102395.25;;;-0.98;88.95
77159;BME280;66129;45.890;13.714;2022-12-20T04:22:47;102378.28;;;-1.09;89.14
77159;BME280;66129;45.890;13.714;2022-12-20T04:25:15;102440.50;;;-0.71;89.58
77159;BME280;66129;45.890;13.714;2022-12-20T04:27:41;102415.31;;;-0.89;89.85
77159;BME280;66129;45.890;13.714;2022-12-20T04:30:07;102385.19;;;-0.98;89.59
77159;BME280;66129;45.890;13.714;2022-12-20T04:32:33;102464.97;;;-0.51;89.90
77159;BME280;66129;45.890;13.714;2022-12-20T04:34:59;102490.53;;;-0.47;89.48
77159;BME280;66129;45.890;13.714;2022-12-20T04:37:24;102406.41;;;-0.86;89.34
77159;BME280;66129;45.890;13.714;2022-12-20T04:39:50;102406.13;;;-0.89;88.92
77159;BME280;66129;45.890;13.714;2022-12-20T04:42:15;102415.25;;;-0.81;89.17
77159;BME280;66129;45.890;13.714;2022-12-20T04:44:41;102400.91;;;-0.82;89.19
77159;BME280;66129;45.890;13.714;2022-12-20T04:47:06;102413.47;;;-0.82;89.34
77159;BME280;66129;45.890;13.714;2022-12-20T04:49:32;102392.72;;;-0.98;89.32
77159;BME280;66129;45.890;13.714;2022-12-20T04:51:57;102428.34;;;-0.93;89.20
77159;BME280;66129;45.890;13.714;2022-12-20T04:54:43;102466.72;;;-0.69;89.70
77159;BME280;66129;45.890;13.714;2022-12-20T04:57:08;102373.50;;;-1.24;90.08
77159;BME280;66129;45.890;13.714;2022-12-20T04:59:34;102434.69;;;-0.88;91.17
77159;BME280;66129;45.890;13.714;2022-12-20T05:02:00;102440.13;;;-0.84;91.00
77159;BME280;66129;45.890;13.714;2022-12-20T05:04:26;102369.38;;;-1.23;90.06
77159;BME280;66129;45.890;13.714;2022-12-20T05:06:52;102454.31;;;-0.76;91.33
77159;BME280;66129;45.890;13.714;2022-12-20T05:09:17;102382.69;;;-1.24;90.20
77159;BME280;66129;45.890;13.714;2022-12-20T05:11:43;102372.63;;;-1.24;91.09
77159;BME280;66129;45.890;13.714;2022-12-20T05:14:08;102441.59;;;-0.77;90.36
77159;BME280;66129;45.890;13.714;2022-12-20T05:16:34;102423.31;;;-0.93;90.48
77159;BME280;66129;45.890;13.714;2022-12-20T05:18:59;102387.16;;;-1.30;90.32
77159;BME280;66129;45.890;13.714;2022-12-20T05:21:26;102444.09;;;-1.04;90.05
77159;BME280;66129;45.890;13.714;2022-12-20T05:24:10;102437.28;;;-0.97;89.37
77159;BME280;66129;45.890;13.714;2022-12-20T05:26:54;102398.28;;;-1.37;88.30
77159;BME280;66129;45.890;13.714;2022-12-20T05:29:20;102402.25;;;-1.30;90.48
77159;BME280;66129;45.890;13.714;2022-12-20T05:31:45;102401.56;;;-1.46;86.85
77159;BME280;66129;45.890;13.714;2022-12-20T05:34:11;102438.47;;;-1.28;86.97
77159;BME280;66129;45.890;13.714;2022-12-20T05:36:36;102436.25;;;-1.25;92.27
77159;BME280;66129;45.890;13.714;2022-12-20T05:39:02;102423.28;;;-1.38;90.25
77159;BME280;66129;45.890;13.714;2022-12-20T05:41:27;102343.41;;;-2.12;87.66
77159;BME280;66129;45.890;13.714;2022-12-20T05:43:53;102388.84;;;-1.92;89.16
77159;BME280;66129;45.890;13.714;2022-12-20T05:46:18;102400.13;;;-1.97;88.97
77159;BME280;66129;45.890;13.714;2022-12-20T05:48:44;102396.13;;;-2.03;89.60
77159;BME280;66129;45.890;13.714;2022-12-20T05:51:09;102380.66;;;-2.16;91.51
77159;BME280;66129;45.890;13.714;2022-12-20T05:53:35;102392.88;;;-2.02;93.11
77159;BME280;66129;45.890;13.714;2022-12-20T05:56:00;102384.16;;;-1.97;93.66
77159;BME280;66129;45.890;13.714;2022-12-20T05:58:26;102340.19;;;-2.19;91.36
77159;BME280;66129;45.890;13.714;2022-12-20T06:00:51;102445.44;;;-1.70;92.23
77159;BME280;66129;45.890;13.714;2022-12-20T06:03:17;102425.94;;;-1.81;93.09
77159;BME280;66129;45.890;13.714;2022-12-20T06:05:44;102389.31;;;-1.87;93.86
77159;BME280;66129;45.890;13.714;2022-12-20T06:08:12;102356.41;;;-1.99;94.31
77159;BME280;66129;45.890;13.714;2022-12-20T06:10:38;102370.66;;;-1.81;93.77
77159;BME280;66129;45.890;13.714;2022-12-20T06:13:08;102354.88;;;-1.88;92.01
77159;BME280;66129;45.890;13.714;2022-12-20T06:15:34;102429.94;;;-1.47;91.19
77159;BME280;66129;45.890;13.714;2022-12-20T06:18:01;102429.75;;;-1.32;90.91
77159;BME280;66129;45.890;13.714;2022-12-20T06:20:27;102330.53;;;-1.98;89.40
77159;BME280;66129;45.890;13.714;2022-12-20T06:22:53;102369.28;;;-1.69;90.91
77159;BME280;66129;45.890;13.714;2022-12-20T06:25:19;102391.94;;;-1.42;92.80
77159;BME280;66129;45.890;13.714;2022-12-20T06:27:45;102373.88;;;-1.38;92.27
77159;BME280;66129;45.890;13.714;2022-12-20T06:30:11;102334.25;;;-1.67;91.34
77159;BME280;66129;45.890;13.714;2022-12-20T06:32:36;102419.66;;;-1.23;89.51
77159;BME280;66129;45.890;13.714;2022-12-20T06:35:03;102317.03;;;-1.81;91.08
77159;BME280;66129;45.890;13.714;2022-12-20T06:37:29;102382.28;;;-1.37;90.93
77159;BME280;66129;45.890;13.714;2022-12-20T06:39:56;102440.31;;;-1.09;89.60
77159;BME280;66129;45.890;13.714;2022-12-20T06:42:23;102380.91;;;-1.25;91.27
77159;BME280;66129;45.890;13.714;2022-12-20T06:44:48;102349.59;;;-1.37;92.46
77159;BME280;66129;45.890;13.714;2022-12-20T06:47:14;102343.28;;;-1.42;88.88
77159;BME280;66129;45.890;13.714;2022-12-20T06:49:40;102303.28;;;-1.58;90.04
77159;BME280;66129;45.890;13.714;2022-12-20T06:52:05;102360.84;;;-1.15;91.68
77159;BME280;66129;45.890;13.714;2022-12-20T06:54:31;102357.94;;;-1.20;88.92
77159;BME280;66129;45.890;13.714;2022-12-20T06:56:56;102380.25;;;-1.14;88.33
77159;BME280;66129;45.890;13.714;2022-12-20T06:59:22;102337.78;;;-1.38;87.63
77159;BME280;66129;45.890;13.714;2022-12-20T07:01:47;102336.69;;;-1.23;89.24
77159;BME280;66129;45.890;13.714;2022-12-20T07:04:13;102429.34;;;-0.64;89.27
77159;BME280;66129;45.890;13.714;2022-12-20T07:06:38;102425.53;;;-0.69;88.37
77159;BME280;66129;45.890;13.714;2022-12-20T07:09:04;102402.91;;;-0.96;87.48
77159;BME280;66129;45.890;13.714;2022-12-20T07:11:30;102403.34;;;-0.92;89.03
77159;BME280;66129;45.890;13.714;2022-12-20T07:13:56;102449.09;;;-0.69;88.78
77159;BME280;66129;45.890;13.714;2022-12-20T07:16:23;102383.00;;;-0.85;91.10
77159;BME280;66129;45.890;13.714;2022-12-20T07:18:49;102438.69;;;-0.45;89.80
77159;BME280;66129;45.890;13.714;2022-12-20T07:21:18;102445.56;;;-0.52;87.79
77159;BME280;66129;45.890;13.714;2022-12-20T07:23:45;102427.84;;;-0.62;89.67
77159;BME280;66129;45.890;13.714;2022-12-20T07:26:11;102355.13;;;-0.78;90.48
77159;BME280;66129;45.890;13.714;2022-12-20T07:28:37;102407.00;;;-0.14;91.43
77159;BME280;66129;45.890;13.714;2022-12-20T07:31:03;102409.19;;;-0.09;88.22
77159;BME280;66129;45.890;13.714;2022-12-20T07:33:29;102434.84;;;0.15;88.09
77159;BME280;66129;45.890;13.714;2022-12-20T07:36:02;102410.28;;;0.13;88.92
77159;BME280;66129;45.890;13.714;2022-12-20T07:38:31;102415.53;;;0.06;86.95
77159;BME280;66129;45.890;13.714;2022-12-20T07:40:57;102436.78;;;0.18;89.67
77159;BME280;66129;45.890;13.714;2022-12-20T07:43:22;102433.78;;;0.22;90.12
77159;BME280;66129;45.890;13.714;2022-12-20T07:45:53;102359.53;;;-0.10;90.70
77159;BME280;66129;45.890;13.714;2022-12-20T07:48:18;102355.63;;;-0.06;90.49
77159;BME280;66129;45.890;13.714;2022-12-20T07:50:44;102393.97;;;0.28;90.50
77159;BME280;66129;45.890;13.714;2022-12-20T07:53:10;102443.00;;;0.31;85.81
77159;BME280;66129;45.890;13.714;2022-12-20T07:55:37;102394.34;;;0.04;89.75
77159;BME280;66129;45.890;13.714;2022-12-20T07:58:05;102400.25;;;0.23;91.40
77159;BME280;66129;45.890;13.714;2022-12-20T08:00:33;102433.50;;;0.57;91.30
77159;BME280;66129;45.890;13.714;2022-12-20T08:03:08;102444.22;;;0.65;91.35
77159;BME280;66129;45.890;13.714;2022-12-20T08:05:37;102382.78;;;0.44;89.96
77159;BME280;66129;45.890;13.714;2022-12-20T08:08:05;102417.13;;;0.62;86.77
77159;BME280;66129;45.890;13.714;2022-12-20T08:10:31;102401.56;;;0.48;86.07
77159;BME280;66129;45.890;13.714;2022-12-20T08:12:57;102417.50;;;0.57;86.86
77159;BME280;66129;45.890;13.714;2022-12-20T08:15:24;102415.31;;;0.41;87.89
77159;BME280;66129;45.890;13.714;2022-12-20T08:17:50;102434.66;;;0.71;89.36
77159;BME280;66129;45.890;13.714;2022-12-20T08:20:15;102414.72;;;0.64;89.47
77159;BME280;66129;45.890;13.714;2022-12-20T08:22:41;102361.72;;;0.44;89.51
77159;BME280;66129;45.890;13.714;2022-12-20T08:25:07;102431.56;;;0.93;89.19
77159;BME280;66129;45.890;13.714;2022-12-20T08:27:32;102405.69;;;0.86;89.36
77159;BME280;66129;45.890;13.714;2022-12-20T08:29:58;102411.59;;;1.06;90.22
77159;BME280;66129;45.890;13.714;2022-12-20T08:32:24;102369.09;;;1.01;89.56
77159;BME280;66129;45.890;13.714;2022-12-20T08:34:51;102389.50;;;1.23;88.93
77159;BME280;66129;45.890;13.714;2022-12-20T08:37:17;102419.19;;;1.46;87.93
77159;BME280;66129;45.890;13.714;2022-12-20T08:39:42;102429.66;;;1.60;88.16
77159;BME280;66129;45.890;13.714;2022-12-20T08:42:09;102316.94;;;1.11;87.73
77159;BME280;66129;45.890;13.714;2022-12-20T08:44:34;102352.38;;;1.42;87.26
77159;BME280;66129;45.890;13.714;2022-12-20T08:47:00;102377.38;;;1.49;87.63
77159;BME280;66129;45.890;13.714;2022-12-20T08:49:25;102415.97;;;1.78;87.59
77159;BME280;66129;45.890;13.714;2022-12-20T08:51:51;102409.66;;;1.73;87.98
77159;BME280;66129;45.890;13.714;2022-12-20T08:54:16;102420.75;;;1.85;87.37
77159;BME280;66129;45.890;13.714;2022-12-20T08:56:42;102373.19;;;1.60;87.29
77159;BME280;66129;45.890;13.714;2022-12-20T08:59:07;102337.34;;;1.44;87.76
77159;BME280;66129;45.890;13.714;2022-12-20T09:01:33;102371.75;;;1.73;87.08
77159;BME280;66129;45.890;13.714;2022-12-20T09:03:59;102361.41;;;1.70;87.59
77159;BME280;66129;45.890;13.714;2022-12-20T09:06:24;102352.78;;;1.78;87.83
77159;BME280;66129;45.890;13.714;2022-12-20T09:08:51;102420.59;;;2.25;87.65
77159;BME280;66129;45.890;13.714;2022-12-20T09:11:19;102312.13;;;1.65;87.39
77159;BME280;66129;45.890;13.714;2022-12-20T09:13:47;102326.75;;;1.79;87.68
77159;BME280;66129;45.890;13.714;2022-12-20T09:16:14;102337.31;;;1.85;87.49
77159;BME280;66129;45.890;13.714;2022-12-20T09:18:40;102422.78;;;2.42;87.04
77159;BME280;66129;45.890;13.714;2022-12-20T09:21:07;102392.38;;;2.30;87.26
77159;BME280;66129;45.890;13.714;2022-12-20T09:23:34;102416.25;;;2.55;87.20
77159;BME280;66129;45.890;13.714;2022-12-20T09:26:02;102374.56;;;2.50;86.33
77159;BME280;66129;45.890;13.714;2022-12-20T09:28:31;102350.19;;;2.41;86.26
77159;BME280;66129;45.890;13.714;2022-12-20T09:31:02;102339.53;;;2.45;85.60
77159;BME280;66129;45.890;13.714;2022-12-20T09:33:28;102353.41;;;2.71;85.60
77159;BME280;66129;45.890;13.714;2022-12-20T09:35:58;102394.47;;;3.00;85.12
77159;BME280;66129;45.890;13.714;2022-12-20T09:44:25;102418.31;;;3.25;84.22
77159;BME280;66129;45.890;13.714;2022-12-20T10:24:18;102246.63;;;3.68;82.08
77159;BME280;66129;45.890;13.714;2022-12-20T10:26:47;102305.09;;;4.06;81.88
77159;BME280;66129;45.890;13.714;2022-12-20T10:29:19;102316.97;;;4.30;81.72
77159;BME280;66129;45.890;13.714;2022-12-20T10:32:01;102354.69;;;4.61;81.19
77159;BME280;66129;45.890;13.714;2022-12-20T10:34:29;102282.97;;;4.28;80.76
77159;BME280;66129;45.890;13.714;2022-12-20T10:37:31;102342.75;;;4.60;80.58
77159;BME280;66129;45.890;13.714;2022-12-20T10:40:39;102337.06;;;4.51;81.35
77159;BME280;66129;45.890;13.714;2022-12-20T10:53:53;102305.44;;;4.59;82.55
77159;BME280;66129;45.890;13.714;2022-12-20T10:58:59;102305.50;;;4.72;82.17
77159;BME280;66129;45.890;13.714;2022-12-20T11:01:31;102221.59;;;4.33;82.04
77159;BME280;66129;45.890;13.714;2022-12-20T11:06:49;102243.25;;;4.52;81.19
77159;BME280;66129;45.890;13.714;2022-12-20T11:12:13;102292.19;;;5.00;81.26
77159;BME280;66129;45.890;13.714;2022-12-20T11:14:40;102222.84;;;4.64;81.23
77159;BME280;66129;45.890;13.714;2022-12-20T11:20:31;102282.91;;;5.01;82.11
77159;BME280;66129;45.890;13.714;2022-12-20T11:26:33;102232.44;;;4.68;81.32
77159;BME280;66129;45.890;13.714;2022-12-20T11:34:57;102194.44;;;4.56;81.07
77159;BME280;66129;45.890;13.714;2022-12-20T11:37:32;102210.34;;;4.67;81.38
77159;BME280;66129;45.890;13.714;2022-12-20T11:40:33;102256.16;;;5.06;80.19
77159;BME280;66129;45.890;13.714;2022-12-20T11:46:29;102242.66;;;5.07;80.17
77159;BME280;66129;45.890;13.714;2022-12-20T11:51:48;102168.38;;;4.72;80.68
77159;BME280;66129;45.890;13.714;2022-12-20T11:56:47;102213.44;;;5.13;79.96
77159;BME280;66129;45.890;13.714;2022-12-20T11:59:41;102223.41;;;5.23;80.29
77159;BME280;66129;45.890;13.714;2022-12-20T12:02:16;102210.50;;;5.20;80.16
77159;BME280;66129;45.890;13.714;2022-12-20T12:05:17;102153.63;;;4.92;79.99
77159;BME280;66129;45.890;13.714;2022-12-20T12:07:48;102119.75;;;4.79;80.29
77159;BME280;66129;45.890;13.714;2022-12-20T12:10:19;102201.78;;;5.30;80.08
77159;BME280;66129;45.890;13.714;2022-12-20T12:12:47;102211.47;;;5.35;80.66
77159;BME280;66129;45.890;13.714;2022-12-20T12:16:00;102117.38;;;4.82;79.78
77159;BME280;66129;45.890;13.714;2022-12-20T12:18:33;102163.66;;;5.17;79.94
77159;BME280;66129;45.890;13.714;2022-12-20T12:26:42;102186.09;;;5.49;79.79
77159;BME280;66129;45.890;13.714;2022-12-20T12:45:27;102182.41;;;5.44;79.28
77159;BME280;66129;45.890;13.714;2022-12-20T12:48:05;102181.16;;;5.38;79.09
77159;BME280;66129;45.890;13.714;2022-12-20T12:50:40;102149.97;;;5.15;78.13
77159;BME280;66129;45.890;13.714;2022-12-20T12:53:23;102161.13;;;5.30;77.86
77159;BME280;66129;45.890;13.714;2022-12-20T12:55:53;102121.34;;;5.04;79.42
77159;BME280;66129;45.890;13.714;2022-12-20T13:01:08;102163.06;;;5.34;78.50
77159;BME280;66129;45.890;13.714;2022-12-20T13:11:37;102113.81;;;5.19;79.53
77159;BME280;66129;45.890;13.714;2022-12-20T13:16:53;102151.69;;;5.42;78.60
77159;BME280;66129;45.890;13.714;2022-12-20T13:21:54;102177.38;;;5.59;80.04
77159;BME280;66129;45.890;13.714;2022-12-20T13:27:37;102092.03;;;5.22;79.71
77159;BME280;66129;45.890;13.714;2022-12-20T13:32:53;102067.47;;;5.23;80.39
77159;BME280;66129;45.890;13.714;2022-12-20T13:40:44;102120.78;;;4.95;80.01
77159;BME280;66129;45.890;13.714;2022-12-20T13:45:49;102072.94;;;4.75;81.31
77159;BME280;66129;45.890;13.714;2022-12-20T13:48:18;102124.25;;;5.36;80.51
77159;BME280;66129;45.890;13.714;2022-12-20T13:50:51;102095.94;;;5.17;79.19
77159;BME280;66129;45.890;13.714;2022-12-20T13:53:26;102074.03;;;5.19;78.88
77159;BME280;66129;45.890;13.714;2022-12-20T13:55:52;102075.09;;;5.23;79.88
77159;BME280;66129;45.890;13.714;2022-12-20T13:58:27;102076.34;;;5.29;80.22
77159;BME280;66129;45.890;13.714;2022-12-20T14:01:05;102080.59;;;5.16;77.82
77159;BME280;66129;45.890;13.714;2022-12-20T14:03:32;102143.66;;;5.48;77.41
77159;BME280;66129;45.890;13.714;2022-12-20T14:06:12;102127.63;;;5.49;78.22
77159;BME280;66129;45.890;13.714;2022-12-20T14:08:45;102111.97;;;5.56;78.89
77159;BME280;66129;45.890;13.714;2022-12-20T14:11:13;102057.69;;;5.29;78.04
77159;BME280;66129;45.890;13.714;2022-12-20T14:13:40;102063.50;;;5.41;78.58
77159;BME280;66129;45.890;13.714;2022-12-20T14:16:26;102076.84;;;5.37;78.39
77159;BME280;66129;45.890;13.714;2022-12-20T14:19:06;102062.84;;;5.30;79.97
77159;BME280;66129;45.890;13.714;2022-12-20T14:21:40;102080.34;;;5.39;80.27
77159;BME280;66129;45.890;13.714;2022-12-20T14:24:12;102084.72;;;5.41;78.84
77159;BME280;66129;45.890;13.714;2022-12-20T14:26:42;102049.06;;;4.99;77.86
77159;BME280;66129;45.890;13.714;2022-12-20T14:29:11;102066.16;;;4.89;79.74
77159;BME280;66129;45.890;13.714;2022-12-20T14:31:45;102123.00;;;5.17;80.13
77159;BME280;66129;45.890;13.714;2022-12-20T14:34:22;102117.91;;;5.17;82.32
77159;BME280;66129;45.890;13.714;2022-12-20T14:36:49;102042.34;;;4.87;82.69
77159;BME280;66129;45.890;13.714;2022-12-20T14:39:33;102122.66;;;5.38;81.78
77159;BME280;66129;45.890;13.714;2022-12-20T14:44:31;102111.63;;;5.38;81.52
77159;BME280;66129;45.890;13.714;2022-12-20T14:47:00;102109.50;;;5.31;79.13
77159;BME280;66129;45.890;13.714;2022-12-20T14:49:35;102110.09;;;5.27;82.69
77159;BME280;66129;45.890;13.714;2022-12-20T14:57:21;102114.19;;;5.25;82.02
77159;BME280;66129;45.890;13.714;2022-12-20T15:03:30;102111.84;;;5.28;83.05
77159;BME280;66129;45.890;13.714;2022-12-20T15:08:31;102090.34;;;5.23;83.08
77159;BME280;66129;45.890;13.714;2022-12-20T15:15:52;102060.88;;;4.99;83.53
77159;BME280;66129;45.890;13.714;2022-12-20T15:18:19;102013.84;;;4.78;84.20
77159;BME280;66129;45.890;13.714;2022-12-20T15:20:48;102053.47;;;5.02;82.76
77159;BME280;66129;45.890;13.714;2022-12-20T15:23:19;102062.53;;;4.98;82.97
77159;BME280;66129;45.890;13.714;2022-12-20T15:25:46;102062.97;;;4.91;82.99
77159;BME280;66129;45.890;13.714;2022-12-20T15:28:23;102113.25;;;4.97;81.95
77159;BME280;66129;45.890;13.714;2022-12-20T15:30:51;102118.47;;;4.85;83.15
77159;BME280;66129;45.890;13.714;2022-12-20T15:33:23;102089.94;;;4.76;85.75
77159;BME280;66129;45.890;13.714;2022-12-20T15:35:49;102113.97;;;4.94;86.26
77159;BME280;66129;45.890;13.714;2022-12-20T15:38:18;102119.31;;;4.99;86.24
77159;BME280;66129;45.890;13.714;2022-12-20T15:40:46;102118.03;;;5.05;86.01
77159;BME280;66129;45.890;13.714;2022-12-20T15:43:14;102101.53;;;4.99;85.10
77159;BME280;66129;45.890;13.714;2022-12-20T15:45:41;102103.19;;;4.98;85.06
77159;BME280;66129;45.890;13.714;2022-12-20T15:48:12;102091.38;;;4.99;85.57